createdAt,value
2019-02-16T00:04:17.289Z,101492.94
2019-02-16T00:09:22.316Z,101485.30
2019-02-16T00:14:27.392Z,101480.56
2019-02-16T00:19:32.532Z,101483.68
2019-02-16T00:24:37.551Z,101473.64
2019-02-16T00:29:43.760Z,101467.94
2019-02-16T00:34:48.846Z,101474.55
2019-02-16T00:39:54.116Z,101463.38
2019-02-16T00:44:59.471Z,101463.55
2019-02-16T00:50:04.590Z,101457.73
2019-02-16T00:55:09.738Z,101451.37
2019-02-16T01:00:19.193Z,101447.81
2019-02-16T01:05:24.266Z,101444.52
2019-02-16T01:10:29.448Z,101442.34
2019-02-16T01:15:34.527Z,101436.11
2019-02-16T01:20:39.655Z,101430.20
2019-02-16T01:25:44.751Z,101425.52
2019-02-16T01:30:50.222Z,101414.88
2019-02-16T01:35:55.883Z,101414.00
2019-02-16T01:41:01.123Z,101413.44
2019-02-16T01:46:06.248Z,101401.92
2019-02-16T01:51:11.329Z,101397.91
2019-02-16T01:56:16.341Z,101388.77
2019-02-16T02:01:21.883Z,101386.42
2019-02-16T02:06:26.967Z,101378.75
2019-02-16T02:11:32.092Z,101383.47
2019-02-16T02:16:37.268Z,101374.63
2019-02-16T02:21:42.325Z,101376.98
2019-02-16T02:26:47.295Z,101378.97
2019-02-16T02:31:52.384Z,101373.55
2019-02-16T02:36:57.581Z,101374.77
2019-02-16T02:42:02.690Z,101368.34
2019-02-16T02:47:07.846Z,101370.66
2019-02-16T02:52:12.906Z,101367.29
2019-02-16T02:57:18.014Z,101365.31
2019-02-16T03:02:23.056Z,101357.80
2019-02-16T03:07:28.165Z,101352.75
2019-02-16T03:12:33.677Z,101344.89
2019-02-16T03:17:38.833Z,101335.06
2019-02-16T03:23:30.251Z,101336.91
2019-02-16T03:28:52.011Z,101334.66
2019-02-16T03:34:05.285Z,101329.98
2019-02-16T03:39:19.743Z,101334.40
2019-02-16T03:44:25.047Z,101330.15
2019-02-16T03:49:30.141Z,101323.12
2019-02-16T03:54:35.096Z,101328.34
2019-02-16T03:59:40.073Z,101326.39
2019-02-16T04:04:46.228Z,101318.12
2019-02-16T04:09:51.606Z,101316.31
2019-02-16T04:14:57.175Z,101313.54
2019-02-16T04:20:05.958Z,101311.13
2019-02-16T04:25:11.622Z,101311.48
2019-02-16T04:30:19.404Z,101300.67
2019-02-16T04:35:28.152Z,101298.11
2019-02-16T04:40:33.710Z,101289.80
2019-02-16T04:45:39.252Z,101291.47
2019-02-16T04:50:47.442Z,101279.34
2019-02-16T04:55:55.939Z,101278.45
2019-02-16T05:01:01.113Z,101277.59
2019-02-16T05:06:07.125Z,101277.23
2019-02-16T05:11:12.189Z,101279.56
2019-02-16T05:16:20.263Z,101282.08
2019-02-16T05:21:28.856Z,101280.11
2019-02-16T05:26:37.468Z,101271.02
2019-02-16T05:31:52.469Z,101277.98
2019-02-16T05:37:01.208Z,101273.10
2019-02-16T05:42:11.745Z,101276.91
2019-02-16T05:47:19.063Z,101274.58
2019-02-16T05:52:25.137Z,101273.58
2019-02-16T05:57:34.705Z,101276.14
2019-02-16T06:02:40.275Z,101275.05
2019-02-16T06:07:45.557Z,101272.50
2019-02-16T06:12:53.812Z,101284.05
2019-02-16T06:17:59.826Z,101272.05
2019-02-16T06:23:05.034Z,101277.25
2019-02-16T06:28:10.689Z,101283.23
2019-02-16T06:33:16.095Z,101272.70
2019-02-16T06:38:21.302Z,101274.39
2019-02-16T06:43:26.932Z,101275.94
2019-02-16T06:48:33.955Z,101276.23
2019-02-16T06:53:42.276Z,101282.66
2019-02-16T06:58:47.861Z,101279.09
2019-02-16T07:03:53.452Z,101278.63
2019-02-16T07:09:07.984Z,101284.64
2019-02-16T07:14:13.184Z,101291.48
2019-02-16T07:19:24.127Z,101291.63
2019-02-16T07:24:29.525Z,101295.20
2019-02-16T07:29:34.637Z,101301.41
2019-02-16T07:34:39.725Z,101302.45
2019-02-16T07:39:44.826Z,101308.42
2019-02-16T07:45:07.956Z,101310.02
2019-02-16T07:50:27.532Z,101307.30
2019-02-16T07:55:54.464Z,101307.70
2019-02-16T08:01:17.289Z,101308.59
2019-02-16T08:06:34.230Z,101302.69
2019-02-16T08:11:48.588Z,101305.31
2019-02-16T08:17:00.042Z,101297.83
2019-02-16T08:22:22.763Z,101292.11
2019-02-16T08:27:39.057Z,101294.48
2019-02-16T08:33:05.995Z,101284.20
2019-02-16T08:38:36.295Z,101284.20
2019-02-16T08:43:51.051Z,101296.86
2019-02-16T08:49:19.433Z,101287.02
2019-02-16T08:54:30.775Z,101278.63
2019-02-16T09:00:04.263Z,101273.85
2019-02-16T09:05:16.202Z,101266.81
2019-02-16T09:10:49.101Z,101258.48
2019-02-16T09:16:13.176Z,101254.55
2019-02-16T09:21:28.641Z,101255.32
2019-02-16T09:26:51.711Z,101261.36
2019-02-16T09:32:18.994Z,101249.58
2019-02-16T09:37:41.035Z,101242.59
2019-02-16T09:43:04.293Z,101252.58
2019-02-16T09:48:18.115Z,101243.48
2019-02-16T09:53:41.620Z,101232.28
2019-02-16T09:59:05.993Z,101229.84
2019-02-16T10:04:29.087Z,101231.84
2019-02-16T10:09:52.392Z,101238.50
2019-02-16T10:15:15.136Z,101237.39
2019-02-16T10:20:29.073Z,101245.98
2019-02-16T10:25:54.995Z,101237.53
2019-02-16T10:31:21.680Z,101237.90
2019-02-16T10:36:44.280Z,101237.56
2019-02-16T10:42:06.067Z,101239.58
2019-02-16T10:47:30.167Z,101228.37
2019-02-16T10:53:03.419Z,101224.95
2019-02-16T10:58:29.385Z,101218.97
2019-02-16T11:03:52.389Z,101216.51
2019-02-16T11:09:07.948Z,101207.39
2019-02-16T11:14:21.753Z,101204.55
2019-02-16T11:19:42.546Z,101189.58
2019-02-16T11:25:05.511Z,101195.43
2019-02-16T11:30:29.601Z,101198.09
2019-02-16T11:36:09.010Z,101188.05
2019-02-16T11:41:22.594Z,101187.23
2019-02-16T11:46:45.530Z,101176.60
2019-02-16T11:51:59.718Z,101163.33
2019-02-16T11:57:42.229Z,101159.72
2019-02-16T12:03:19.198Z,101148.83
2019-02-16T12:08:44.148Z,101166.59
2019-02-16T12:14:17.908Z,101153.66
2019-02-16T12:19:30.963Z,101145.87
2019-02-16T12:25:05.357Z,101140.28
2019-02-16T12:30:28.994Z,101141.84
2019-02-16T12:35:51.231Z,101127.89
2019-02-16T12:41:21.832Z,101132.46
2019-02-16T12:46:36.449Z,101130.70
2019-02-16T12:51:57.858Z,101133.09
2019-02-16T12:57:07.866Z,101131.06
2019-02-16T13:02:30.624Z,101131.14
2019-02-16T13:07:49.989Z,101127.82
2019-02-16T13:13:08.558Z,101108.42
2019-02-16T13:18:28.423Z,101100.64
2019-02-16T13:23:46.598Z,101103.33
2019-02-16T13:29:10.754Z,101096.44
2019-02-16T13:34:33.921Z,101087.80
2019-02-16T13:39:53.043Z,101084.16
2019-02-16T13:45:07.607Z,101082.04
2019-02-16T13:50:30.696Z,101094.03
2019-02-16T13:56:00.678Z,101092.50
2019-02-16T14:01:20.904Z,101089.41
2019-02-16T14:06:44.665Z,101085.52
2019-02-16T14:12:03.771Z,101075.30
2019-02-16T14:17:27.437Z,101073.53
2019-02-16T14:22:32.483Z,101073.53
2019-02-16T14:27:37.547Z,101080.72
2019-02-16T14:32:42.697Z,101070.89
2019-02-16T14:38:02.425Z,101066.84
2019-02-16T14:43:07.442Z,101057.70
2019-02-16T14:48:12.515Z,101066.44
2019-02-16T14:53:17.886Z,101067.39
2019-02-16T14:58:22.887Z,101067.11
2019-02-16T15:03:28.009Z,101059.44
2019-02-16T15:08:33.163Z,101057.16
2019-02-16T15:13:40.354Z,101051.84
2019-02-16T15:18:45.652Z,101043.23
2019-02-16T15:23:51.457Z,101041.36
2019-02-16T15:28:56.870Z,101039.08
2019-02-16T15:34:02.100Z,101035.91
2019-02-16T15:39:13.191Z,101030.83
2019-02-16T15:44:18.401Z,101031.47
2019-02-16T15:49:24.156Z,101030.23
2019-02-16T15:54:29.456Z,101031.48
2019-02-16T15:59:35.415Z,101030.39
2019-02-16T16:04:40.584Z,101027.63
2019-02-16T16:10:20.530Z,101030.09
2019-02-16T16:15:47.550Z,101016.80
2019-02-16T16:21:11.891Z,101020.33
2019-02-16T16:26:36.090Z,101017.16
2019-02-16T16:32:01.219Z,101010.71
2019-02-16T16:37:23.363Z,101018.80
2019-02-16T16:42:44.347Z,101011.88
2019-02-16T16:48:08.961Z,101018.62
2019-02-16T16:53:38.676Z,101013.19
2019-02-16T16:59:05.689Z,101022.12
2019-02-16T17:04:25.027Z,101023.87
2019-02-16T17:10:01.281Z,101022.70
2019-02-16T17:15:22.962Z,101017.77
2019-02-16T17:20:58.021Z,101018.23
2019-02-16T17:26:20.830Z,101013.64
2019-02-16T17:31:45.142Z,101018.28
2019-02-16T17:37:02.380Z,101020.00
2019-02-16T17:42:19.704Z,101015.83
2019-02-16T17:47:43.975Z,101021.52
2019-02-16T17:53:17.563Z,101018.36
2019-02-16T17:58:34.347Z,101019.28
2019-02-16T18:03:48.327Z,101027.08
2019-02-16T18:09:11.898Z,101021.81
2019-02-16T18:14:42.371Z,101027.73
2019-02-16T18:20:06.585Z,101021.36
2019-02-16T18:25:35.995Z,101027.80
2019-02-16T18:31:00.147Z,101025.17
2019-02-16T18:36:23.057Z,101034.55
2019-02-16T18:41:56.133Z,101039.91
2019-02-16T18:47:19.795Z,101032.48
2019-02-16T18:52:43.315Z,101030.62
2019-02-16T18:58:08.334Z,101026.89
2019-02-16T19:03:27.664Z,101033.25
2019-02-16T19:08:57.859Z,101027.66
2019-02-16T19:14:24.932Z,101033.53
2019-02-16T19:19:51.981Z,101021.00
2019-02-16T19:25:16.116Z,101018.04
2019-02-16T19:30:40.511Z,101022.59
2019-02-16T19:35:53.076Z,101020.73
2019-02-16T19:41:17.152Z,101027.67
2019-02-16T19:46:41.154Z,101024.25
2019-02-16T19:52:23.564Z,101029.31
2019-02-16T19:57:40.722Z,101034.38
2019-02-16T20:02:53.644Z,101031.71
2019-02-16T20:08:31.264Z,101034.91
2019-02-16T20:13:52.151Z,101033.31
2019-02-16T20:19:34.663Z,101031.98
2019-02-16T20:24:54.213Z,101034.13
2019-02-16T20:30:27.865Z,101045.81
2019-02-16T20:35:45.423Z,101048.19
2019-02-16T20:41:08.964Z,101051.13
2019-02-16T20:46:33.211Z,101060.66
2019-02-16T20:51:51.606Z,101055.58
2019-02-16T20:57:03.975Z,101058.50
2019-02-16T21:02:28.458Z,101069.88
2019-02-16T21:07:48.256Z,101061.09
2019-02-16T21:13:13.396Z,101061.55
2019-02-16T21:18:37.835Z,101067.37
2019-02-16T21:24:05.146Z,101068.34
2019-02-16T21:29:22.552Z,101068.33
2019-02-16T21:34:46.801Z,101070.44
2019-02-16T21:40:20.000Z,101074.14
2019-02-16T21:45:47.658Z,101073.85
2019-02-16T21:51:13.015Z,101071.13
2019-02-16T21:56:37.903Z,101073.48
2019-02-16T22:01:52.740Z,101068.67
2019-02-16T22:07:22.702Z,101069.69
2019-02-16T22:12:59.086Z,101067.53
2019-02-16T22:18:04.348Z,101075.14
2019-02-16T22:23:10.144Z,101072.55
2019-02-16T22:28:20.347Z,101067.70
2019-02-16T22:33:22.108Z,101068.14
2019-02-16T22:38:27.260Z,101058.64
2019-02-16T22:43:32.775Z,101073.00
2019-02-16T22:48:38.140Z,101072.38
2019-02-16T22:53:43.648Z,101074.65
2019-02-16T22:58:48.748Z,101074.17
2019-02-16T23:03:53.944Z,101075.77
2019-02-16T23:08:59.575Z,101074.80
2019-02-16T23:14:04.847Z,101077.34
2019-02-16T23:19:10.020Z,101081.78
2019-02-16T23:24:15.140Z,101086.77
2019-02-16T23:29:22.444Z,101088.17
2019-02-16T23:34:27.720Z,101087.66
2019-02-16T23:39:33.047Z,101093.63
2019-02-16T23:44:38.102Z,101083.12
2019-02-16T23:49:43.690Z,101093.12
2019-02-16T23:54:49.256Z,101085.14
2019-02-16T23:59:54.337Z,101085.64
